Time;durP1;ratioP1;P1;durP2;ratioP2;P2;SDS_P1;SDS_P2;PMS_P1;PMS_P2;Temp;Humidity;BMP_temperature;BMP_pressure;BME280_temperature;BME280_humidity;BME280_pressure;Samples;Min_cycle;Max_cycle;Signal;HPM_P1;HPM_P2
2023/08/11 00:00:42;;;;;;;2.20;1.80;;;14.50;99.90;;;;;;4987866;28;20039;-63
2023/08/11 00:03:08;;;;;;;3.45;1.60;;;14.50;99.90;;;;;;4986248;28;20478;-63
2023/08/11 00:05:40;;;;;;;4.35;1.80;;;14.50;99.90;;;;;;4985059;28;20495;-63
2023/08/11 00:08:08;;;;;;;2.90;1.95;;;14.50;99.90;;;;;;4984365;28;20121;-63
2023/08/11 00:10:34;;;;;;;2.92;1.98;;;14.50;99.90;;;;;;4987357;28;20077;-63
2023/08/11 00:13:01;;;;;;;4.10;2.15;;;14.50;99.90;;;;;;4974758;28;20033;-63
2023/08/11 00:15:31;;;;;;;3.80;2.08;;;14.40;99.90;;;;;;4988498;28;20046;-63
2023/08/11 00:18:00;;;;;;;2.95;2.10;;;14.40;99.90;;;;;;4983277;28;20054;-63
2023/08/11 00:20:29;;;;;;;3.88;2.40;;;14.40;99.90;;;;;;4987039;28;20093;-62
2023/08/11 00:22:55;;;;;;;3.05;2.28;;;14.40;99.90;;;;;;4986207;28;20034;-63
2023/08/11 00:25:22;;;;;;;3.95;2.08;;;14.40;99.90;;;;;;4984174;28;20084;-63
2023/08/11 00:27:48;;;;;;;3.00;2.00;;;14.40;99.90;;;;;;4989269;28;20045;-63
2023/08/11 00:30:14;;;;;;;3.00;2.00;;;14.30;99.90;;;;;;4992215;28;20553;-63
2023/08/11 00:32:40;;;;;;;4.82;2.25;;;14.40;99.90;;;;;;4989649;28;20084;-63
2023/08/11 00:35:07;;;;;;;4.00;2.30;;;14.40;99.90;;;;;;4972425;28;20042;-63
2023/08/11 00:37:33;;;;;;;7.55;2.30;;;14.40;99.90;;;;;;4984941;28;20109;-63
2023/08/11 00:40:00;;;;;;;3.83;2.05;;;14.40;99.90;;;;;;4969700;28;20603;-63
2023/08/11 00:42:26;;;;;;;4.25;2.30;;;14.40;99.90;;;;;;4984718;28;20038;-63
2023/08/11 00:44:52;;;;;;;2.90;2.20;;;14.40;99.90;;;;;;4972598;28;20041;-63
2023/08/11 00:47:17;;;;;;;3.17;2.25;;;14.40;99.90;;;;;;4974634;28;20042;-63
2023/08/11 00:49:43;;;;;;;4.47;2.30;;;14.30;99.90;;;;;;4989838;28;20038;-62
2023/08/11 00:52:11;;;;;;;5.63;2.20;;;14.30;99.90;;;;;;4975549;28;20041;-63
2023/08/11 00:54:39;;;;;;;3.75;2.28;;;14.30;99.90;;;;;;4991117;28;20554;-63
2023/08/11 00:57:05;;;;;;;3.08;1.92;;;14.30;99.90;;;;;;4982367;28;20046;-63
2023/08/11 00:59:31;;;;;;;6.60;2.40;;;14.20;99.90;;;;;;4978997;28;20030;-63
2023/08/11 01:01:56;;;;;;;6.80;2.20;;;14.20;99.90;;;;;;4973028;28;20038;-63
2023/08/11 01:04:22;;;;;;;3.70;2.60;;;14.20;99.90;;;;;;4995682;28;20702;-63
2023/08/11 01:06:57;;;;;;;5.70;2.30;;;14.20;99.90;;;;;;4994539;28;20485;-63
2023/08/11 01:09:47;;;;;;;7.20;3.38;;;14.20;99.90;;;;;;4988750;28;20034;-63
2023/08/11 01:12:56;;;;;;;3.08;2.40;;;14.20;99.90;;;;;;4972308;28;20034;-63
2023/08/11 01:15:29;;;;;;;3.50;2.25;;;14.20;99.90;;;;;;4987064;28;20473;-63
2023/08/11 01:17:56;;;;;;;2.50;2.00;;;14.20;99.90;;;;;;4988640;28;20031;-63
2023/08/11 01:20:23;;;;;;;2.42;2.22;;;14.20;99.90;;;;;;4991291;28;20030;-63
2023/08/11 01:22:56;;;;;;;3.63;2.50;;;14.30;99.90;;;;;;4994291;28;20044;-62
2023/08/11 01:25:23;;;;;;;2.63;2.28;;;14.20;99.90;;;;;;4975607;28;20133;-63
2023/08/11 01:27:56;;;;;;;6.35;2.53;;;14.30;99.90;;;;;;4976142;28;20084;-63
2023/08/11 01:30:23;;;;;;;3.45;2.35;;;14.30;99.90;;;;;;4987417;28;20054;-63
2023/08/11 01:32:50;;;;;;;4.15;2.40;;;14.30;99.90;;;;;;4989958;28;20375;-63
2023/08/11 01:35:16;;;;;;;3.75;2.28;;;14.30;99.90;;;;;;4988167;28;20182;-63
2023/08/11 01:37:43;;;;;;;4.32;1.90;;;14.20;99.90;;;;;;4974411;28;20062;-63
2023/08/11 01:40:13;;;;;;;2.83;1.90;;;14.20;99.90;;;;;;4997130;28;20431;-63
2023/08/11 01:42:43;;;;;;;3.30;2.20;;;14.10;99.90;;;;;;4992896;28;20031;-63
2023/08/11 01:45:11;;;;;;;2.85;2.28;;;14.10;99.90;;;;;;4975011;28;20030;-63
2023/08/11 01:47:39;;;;;;;2.63;2.22;;;14.10;99.90;;;;;;4990372;28;20441;-63
2023/08/11 01:50:07;;;;;;;3.13;2.38;;;14.10;99.90;;;;;;4986474;28;20045;-63
2023/08/11 01:52:41;;;;;;;3.22;1.98;;;14.10;99.90;;;;;;4970454;28;20034;-63
2023/08/11 01:55:09;;;;;;;2.70;2.00;;;14.10;99.90;;;;;;4965435;28;20037;-63
2023/08/11 01:57:39;;;;;;;3.88;2.13;;;14.10;99.90;;;;;;4993955;28;20410;-62
2023/08/11 02:00:09;;;;;;;2.47;1.88;;;14.10;99.90;;;;;;4971977;28;20029;-62
2023/08/11 02:02:43;;;;;;;3.35;2.20;;;14.20;99.90;;;;;;4990592;28;20038;-62
2023/08/11 02:05:11;;;;;;;4.22;2.70;;;14.20;99.90;;;;;;4973149;28;20058;-62
2023/08/11 02:07:38;;;;;;;3.53;2.20;;;14.30;99.90;;;;;;4989120;28;20034;-63
2023/08/11 02:10:04;;;;;;;4.70;2.50;;;14.40;99.90;;;;;;4969563;28;20807;-63
2023/08/11 02:12:30;;;;;;;4.60;2.38;;;14.40;99.90;;;;;;4986750;28;20066;-63
2023/08/11 02:14:56;;;;;;;3.10;2.00;;;14.40;99.90;;;;;;4978580;28;20056;-63
2023/08/11 02:17:22;;;;;;;2.60;1.85;;;14.40;99.90;;;;;;4992972;28;20030;-63
2023/08/11 02:19:48;;;;;;;2.75;1.90;;;14.40;99.90;;;;;;4975146;28;20053;-63
2023/08/11 02:22:14;;;;;;;2.60;1.77;;;14.40;99.90;;;;;;4990836;28;20145;-63
2023/08/11 02:24:39;;;;;;;5.00;2.40;;;14.30;99.90;;;;;;4971746;28;20044;-63
2023/08/11 02:27:05;;;;;;;4.43;2.10;;;14.30;99.90;;;;;;4969948;28;20414;-62
2023/08/11 02:29:32;;;;;;;5.40;1.88;;;14.40;99.90;;;;;;4969002;28;20030;-63
2023/08/11 02:31:57;;;;;;;4.35;1.88;;;14.40;99.90;;;;;;4992310;28;20026;-62
2023/08/11 02:34:24;;;;;;;3.58;2.05;;;14.40;99.90;;;;;;4993233;28;20477;-62
2023/08/11 02:36:50;;;;;;;5.28;2.10;;;14.40;99.90;;;;;;4968903;28;20133;-62
2023/08/11 02:39:16;;;;;;;4.65;2.00;;;14.40;99.90;;;;;;4966372;28;20674;-63
2023/08/11 02:41:42;;;;;;;4.38;2.28;;;14.40;99.90;;;;;;4971915;28;20038;-63
2023/08/11 02:44:08;;;;;;;2.85;2.20;;;14.30;99.90;;;;;;4987618;28;20120;-63
2023/08/11 02:46:34;;;;;;;5.05;1.90;;;14.40;99.90;;;;;;4968948;28;20104;-63
2023/08/11 02:49:00;;;;;;;5.22;2.13;;;14.40;99.90;;;;;;4975119;28;20486;-63
2023/08/11 02:51:26;;;;;;;2.50;2.28;;;14.40;99.90;;;;;;4975425;28;20030;-63
2023/08/11 02:53:52;;;;;;;4.75;2.00;;;14.50;99.90;;;;;;4975580;28;20117;-63
2023/08/11 02:56:17;;;;;;;2.30;1.70;;;14.50;99.90;;;;;;4990244;28;20401;-63
2023/08/11 02:58:43;;;;;;;3.38;2.20;;;14.50;99.90;;;;;;4985363;28;20038;-62
2023/08/11 03:01:09;;;;;;;3.63;2.75;;;14.50;99.90;;;;;;4987747;28;20053;-63
2023/08/11 03:03:35;;;;;;;4.38;2.17;;;14.60;99.90;;;;;;4986753;28;20038;-63
2023/08/11 03:06:01;;;;;;;5.40;2.42;;;14.70;99.90;;;;;;4988969;28;20087;-63
2023/08/11 03:08:27;;;;;;;3.20;2.20;;;14.70;99.90;;;;;;4992889;28;20045;-63
2023/08/11 03:10:53;;;;;;;2.90;2.28;;;14.70;99.90;;;;;;4993497;28;20030;-63
2023/08/11 03:13:19;;;;;;;3.10;2.20;;;14.80;99.90;;;;;;4972721;28;20033;-63
2023/08/11 03:15:46;;;;;;;2.85;2.28;;;14.80;99.90;;;;;;4971059;28;20030;-64
2023/08/11 03:18:12;;;;;;;3.08;2.17;;;14.80;99.90;;;;;;4965745;28;20034;-63
2023/08/11 03:20:38;;;;;;;2.20;1.95;;;14.80;99.90;;;;;;4965436;28;20033;-62
2023/08/11 03:23:04;;;;;;;3.03;2.30;;;14.80;99.90;;;;;;4968014;28;20088;-63
2023/08/11 03:25:31;;;;;;;2.75;2.40;;;14.90;99.90;;;;;;4974740;28;20030;-63
2023/08/11 03:27:57;;;;;;;3.47;2.40;;;14.90;99.90;;;;;;4976362;28;20026;-63
2023/08/11 03:30:26;;;;;;;8.18;2.03;;;14.90;99.90;;;;;;4969172;28;20041;-63
2023/08/11 03:32:54;;;;;;;3.38;2.50;;;14.90;99.90;;;;;;4990743;28;20045;-62
2023/08/11 03:35:26;;;;;;;3.17;2.22;;;14.90;99.90;;;;;;4967218;28;20037;-63
2023/08/11 03:37:52;;;;;;;4.72;2.28;;;14.90;99.90;;;;;;4970114;28;20034;-63
2023/08/11 03:40:19;;;;;;;2.80;2.20;;;15.00;99.90;;;;;;4958456;28;20701;-62
2023/08/11 03:42:52;;;;;;;2.70;2.50;;;15.00;99.90;;;;;;4981207;28;20042;-63
2023/08/11 03:45:19;;;;;;;2.95;2.30;;;15.00;99.90;;;;;;4978624;28;20037;-62
2023/08/11 03:47:45;;;;;;;3.47;2.35;;;15.00;99.90;;;;;;4991535;28;20808;-63
2023/08/11 03:50:17;;;;;;;3.17;2.22;;;15.00;99.90;;;;;;4968892;28;20113;-63
2023/08/11 03:52:43;;;;;;;2.85;2.05;;;15.00;99.90;;;;;;4975848;28;20117;-63
2023/08/11 03:55:10;;;;;;;3.47;2.10;;;15.10;99.90;;;;;;4986386;28;20054;-63
2023/08/11 03:57:38;;;;;;;3.97;2.33;;;15.10;99.90;;;;;;4967606;28;20030;-62
2023/08/11 04:00:09;;;;;;;4.28;2.30;;;15.10;99.90;;;;;;4971270;28;20034;-63
2023/08/11 04:02:39;;;;;;;3.97;2.53;;;15.10;99.90;;;;;;4991518;28;20042;-63
2023/08/11 04:05:07;;;;;;;2.83;2.25;;;15.10;99.90;;;;;;4974583;28;20545;-63
2023/08/11 04:07:33;;;;;;;3.17;2.47;;;15.00;99.90;;;;;;4971471;28;20045;-62
2023/08/11 04:09:59;;;;;;;4.15;2.58;;;15.00;99.90;;;;;;4955494;28;20026;-63
2023/08/11 04:12:25;;;;;;;3.40;2.72;;;15.00;99.90;;;;;;4963988;28;20026;-63
2023/08/11 04:14:51;;;;;;;4.13;2.70;;;15.00;99.90;;;;;;4960672;28;20030;-63
2023/08/11 04:17:20;;;;;;;3.08;2.75;;;15.00;99.90;;;;;;4984512;28;20489;-63
2023/08/11 04:19:46;;;;;;;2.90;2.50;;;15.00;99.90;;;;;;4991450;28;20044;-63
2023/08/11 04:22:12;;;;;;;4.28;2.70;;;15.00;99.90;;;;;;4968264;28;20034;-63
2023/08/11 04:24:37;;;;;;;6.65;3.10;;;15.00;99.90;;;;;;4989694;28;20481;-63
2023/08/11 04:27:03;;;;;;;6.15;3.13;;;15.00;99.90;;;;;;4972842;28;20142;-62
2023/08/11 04:29:29;;;;;;;3.85;2.75;;;15.00;99.90;;;;;;4973124;28;20038;-63
2023/08/11 04:31:55;;;;;;;4.18;2.65;;;15.00;99.90;;;;;;4972621;28;20022;-62
2023/08/11 04:34:21;;;;;;;3.85;2.70;;;15.00;99.90;;;;;;4970124;28;20034;-62
2023/08/11 04:36:47;;;;;;;3.15;2.42;;;14.90;99.90;;;;;;4996840;28;20030;-63
2023/08/11 04:39:12;;;;;;;4.47;3.25;;;15.00;99.90;;;;;;4996029;28;20207;-63
2023/08/11 04:41:39;;;;;;;4.32;2.85;;;14.90;99.90;;;;;;4975590;28;20034;-63
2023/08/11 04:44:05;;;;;;;4.70;3.10;;;15.00;99.90;;;;;;4975764;28;20104;-63
2023/08/11 04:46:32;;;;;;;3.47;2.92;;;15.00;99.90;;;;;;4972702;28;20100;-63
2023/08/11 04:48:58;;;;;;;3.85;3.20;;;15.00;99.90;;;;;;4971762;28;20033;-63
2023/08/11 04:51:24;;;;;;;3.35;2.85;;;15.00;99.90;;;;;;4971032;28;20027;-63
2023/08/11 04:53:49;;;;;;;4.88;2.88;;;15.00;99.90;;;;;;4979215;28;20035;-63
2023/08/11 04:56:15;;;;;;;3.67;2.92;;;15.10;99.90;;;;;;4978049;28;20033;-63
2023/08/11 04:58:41;;;;;;;2.90;2.70;;;15.10;99.90;;;;;;4993745;28;20112;-62
2023/08/11 05:01:07;;;;;;;3.50;3.15;;;15.20;99.90;;;;;;4993699;28;20045;-63
2023/08/11 05:03:33;;;;;;;4.47;3.33;;;15.30;99.90;;;;;;4990832;28;20092;-62
2023/08/11 05:05:59;;;;;;;6.75;3.63;;;15.40;99.90;;;;;;4990560;28;20025;-63
2023/08/11 05:08:25;;;;;;;4.03;2.95;;;15.60;99.90;;;;;;4990216;28;20041;-63
2023/08/11 05:10:50;;;;;;;4.35;2.92;;;15.70;99.90;;;;;;4993205;28;20741;-63
2023/08/11 05:13:16;;;;;;;6.75;2.90;;;15.70;99.90;;;;;;4995995;28;20041;-63
2023/08/11 05:15:42;;;;;;;4.30;3.42;;;15.90;99.90;;;;;;4991308;28;20041;-63
2023/08/11 05:18:08;;;;;;;4.70;3.20;;;16.00;99.90;;;;;;4989448;28;20061;-63
2023/08/11 05:20:34;;;;;;;3.88;3.05;;;16.00;99.90;;;;;;4988709;28;20034;-63
2023/08/11 05:22:59;;;;;;;5.15;3.10;;;16.10;99.90;;;;;;4990461;28;20041;-63
2023/08/11 05:25:26;;;;;;;4.82;3.25;;;16.30;99.90;;;;;;4988849;28;20022;-63
2023/08/11 05:27:51;;;;;;;4.38;3.10;;;16.30;99.90;;;;;;4989661;28;20145;-63
2023/08/11 05:30:17;;;;;;;5.28;3.45;;;16.40;99.90;;;;;;4996001;28;20052;-62
2023/08/11 05:32:43;;;;;;;7.78;3.88;;;16.50;99.90;;;;;;4993505;28;20034;-62
2023/08/11 05:35:09;;;;;;;6.05;3.83;;;16.60;99.90;;;;;;4993302;28;20149;-63
2023/08/11 05:37:37;;;;;;;4.50;3.10;;;16.60;99.90;;;;;;4990114;28;20117;-63
2023/08/11 05:40:03;;;;;;;4.40;3.13;;;16.60;99.90;;;;;;4988309;28;20034;-63
2023/08/11 05:42:29;;;;;;;5.32;3.15;;;16.70;99.90;;;;;;4988952;28;20109;-63
2023/08/11 05:44:55;;;;;;;4.10;2.58;;;16.80;99.90;;;;;;4987901;28;20113;-63
2023/08/11 05:47:21;;;;;;;3.17;2.67;;;16.80;99.90;;;;;;4993743;28;20839;-63
2023/08/11 05:49:47;;;;;;;4.85;3.42;;;16.90;99.90;;;;;;4994645;28;20494;-63
2023/08/11 05:52:12;;;;;;;4.15;3.20;;;17.00;99.90;;;;;;4993432;28;20453;-63
2023/08/11 05:54:38;;;;;;;4.03;3.20;;;17.00;99.90;;;;;;4991124;28;20036;-63
2023/08/11 05:57:04;;;;;;;4.80;3.50;;;17.10;99.90;;;;;;4991034;28;20084;-63
2023/08/11 05:59:30;;;;;;;5.30;2.95;;;17.10;99.90;;;;;;4978493;28;20034;-63
2023/08/11 06:01:56;;;;;;;4.85;3.30;;;17.20;99.90;;;;;;4982927;28;20050;-63
2023/08/11 06:04:21;;;;;;;3.65;2.78;;;17.20;99.90;;;;;;4994110;28;20033;-63
2023/08/11 06:06:47;;;;;;;5.38;3.15;;;17.30;99.90;;;;;;4994573;28;20066;-63
2023/08/11 06:09:13;;;;;;;2.63;2.42;;;17.40;99.90;;;;;;4993549;28;20462;-63
2023/08/11 06:11:39;;;;;;;4.55;3.05;;;17.40;99.90;;;;;;4990920;28;20100;-63
2023/08/11 06:14:05;;;;;;;5.68;2.97;;;17.40;99.90;;;;;;4991084;28;20541;-63
2023/08/11 06:16:31;;;;;;;4.20;2.70;;;17.50;99.90;;;;;;4983371;28;20030;-63
2023/08/11 06:18:57;;;;;;;5.78;3.13;;;17.60;99.90;;;;;;4988116;28;20030;-63
2023/08/11 06:21:23;;;;;;;3.03;2.65;;;17.60;99.90;;;;;;4990574;28;20041;-63
2023/08/11 06:23:49;;;;;;;3.75;3.20;;;17.70;99.90;;;;;;4994782;28;20521;-63
2023/08/11 06:26:15;;;;;;;3.95;2.90;;;17.70;99.90;;;;;;4993501;28;20041;-63
2023/08/11 06:28:41;;;;;;;8.75;2.97;;;17.80;99.90;;;;;;4991480;28;20551;-63
2023/08/11 06:31:10;;;;;;;4.13;2.67;;;17.80;99.90;;;;;;4990894;28;20482;-63
2023/08/11 06:33:35;;;;;;;5.70;3.05;;;17.90;99.90;;;;;;4988480;28;20038;-63
2023/08/11 06:36:01;;;;;;;3.65;2.85;;;17.90;99.90;;;;;;4988128;28;20690;-63
2023/08/11 06:38:27;;;;;;;3.38;2.78;;;18.00;99.90;;;;;;4986366;28;20042;-63
2023/08/11 06:40:53;;;;;;;4.88;3.13;;;18.10;99.90;;;;;;4995418;28;20147;-63
2023/08/11 06:43:18;;;;;;;5.07;2.70;;;18.20;99.90;;;;;;4992759;28;20623;-63
2023/08/11 06:45:47;;;;;;;4.22;2.92;;;18.20;99.90;;;;;;4991613;28;20113;-63
2023/08/11 06:48:13;;;;;;;3.30;2.50;;;18.30;99.90;;;;;;4990488;28;20486;-63
2023/08/11 06:50:38;;;;;;;3.35;2.72;;;18.30;99.90;;;;;;4988420;28;20030;-63
2023/08/11 06:53:04;;;;;;;3.00;2.47;;;18.40;99.90;;;;;;4987860;28;20209;-63
2023/08/11 06:55:31;;;;;;;4.20;2.40;;;18.50;99.90;;;;;;4986124;28;20033;-63
2023/08/11 06:57:57;;;;;;;5.05;2.17;;;18.60;99.90;;;;;;4989672;28;20117;-63
2023/08/11 07:00:23;;;;;;;2.55;2.33;;;18.60;99.90;;;;;;4992481;28;20480;-63
2023/08/11 07:02:49;;;;;;;3.35;2.15;;;18.70;99.90;;;;;;4992741;28;20034;-63
2023/08/11 07:05:15;;;;;;;3.05;2.28;;;18.80;99.90;;;;;;4990261;28;20133;-63
2023/08/11 07:07:41;;;;;;;4.65;2.50;;;19.00;99.90;;;;;;4990568;28;20042;-63
2023/08/11 07:10:07;;;;;;;3.40;2.20;;;19.10;99.90;;;;;;4985364;28;20093;-63
2023/08/11 07:12:33;;;;;;;2.80;1.80;;;19.20;99.90;;;;;;4986926;28;20035;-64
2023/08/11 07:14:59;;;;;;;2.83;2.15;;;19.30;99.90;;;;;;4992290;28;20033;-63
2023/08/11 07:17:25;;;;;;;3.53;2.20;;;19.40;99.90;;;;;;4992382;28;20153;-63
2023/08/11 07:19:51;;;;;;;6.18;1.98;;;19.50;99.90;;;;;;4993181;28;20153;-63
2023/08/11 07:22:17;;;;;;;2.72;1.80;;;19.70;99.90;;;;;;4989986;28;20030;-63
2023/08/11 07:24:43;;;;;;;2.20;1.90;;;19.80;99.90;;;;;;4989151;28;20042;-63
2023/08/11 07:27:09;;;;;;;3.00;2.35;;;19.90;99.90;;;;;;4987676;28;20030;-63
2023/08/11 07:29:34;;;;;;;3.42;2.10;;;20.00;99.90;;;;;;4986345;28;20061;-63
2023/08/11 07:32:00;;;;;;;6.55;2.20;;;20.10;99.90;;;;;;4988420;28;20612;-63
2023/08/11 07:34:26;;;;;;;2.42;1.90;;;20.30;99.90;;;;;;4992635;28;20034;-63
2023/08/11 07:36:52;;;;;;;4.55;2.47;;;20.40;99.90;;;;;;4992762;28;20033;-63
2023/08/11 07:39:18;;;;;;;6.68;2.22;;;20.40;99.90;;;;;;4990524;28;20038;-63
2023/08/11 07:41:44;;;;;;;5.55;1.98;;;20.40;99.90;;;;;;4989353;28;20808;-63
2023/08/11 07:44:09;;;;;;;4.25;1.85;;;20.40;99.90;;;;;;4988236;28;20038;-63
2023/08/11 07:46:35;;;;;;;5.30;1.65;;;20.50;99.90;;;;;;4986789;28;20047;-64
2023/08/11 07:49:01;;;;;;;3.95;1.75;;;20.50;99.90;;;;;;4985760;28;20058;-63
2023/08/11 07:51:27;;;;;;;4.53;1.92;;;20.70;99.90;;;;;;4992218;28;20398;-63
2023/08/11 07:53:52;;;;;;;2.80;1.60;;;20.80;99.90;;;;;;4993028;28;20038;-64
2023/08/11 07:56:18;;;;;;;3.90;1.88;;;20.80;99.90;;;;;;4990359;28;20031;-64
2023/08/11 07:58:46;;;;;;;3.70;1.92;;;20.90;99.60;;;;;;4989086;28;20045;-63
2023/08/11 08:01:12;;;;;;;2.95;1.60;;;20.90;99.10;;;;;;4971033;28;20034;-63
2023/08/11 08:03:38;;;;;;;3.03;2.05;;;20.90;99.30;;;;;;4990811;28;20084;-63
2023/08/11 08:06:05;;;;;;;5.35;1.90;;;20.80;99.50;;;;;;4989761;28;20561;-63
2023/08/11 08:08:33;;;;;;;3.85;1.75;;;20.70;99.80;;;;;;4992412;28;20049;-63
2023/08/11 08:11:01;;;;;;;4.63;1.90;;;20.60;99.80;;;;;;4997965;28;20057;-63
2023/08/11 08:13:27;;;;;;;3.97;1.50;;;20.60;99.90;;;;;;4989967;28;20027;-63
2023/08/11 08:15:52;;;;;;;2.47;1.73;;;20.60;99.90;;;;;;4992617;28;20141;-63
2023/08/11 08:18:20;;;;;;;2.40;1.48;;;20.70;99.60;;;;;;4988322;28;20204;-63
2023/08/11 08:20:46;;;;;;;3.88;2.20;;;20.70;99.40;;;;;;4991431;28;20495;-63
2023/08/11 08:23:12;;;;;;;4.60;2.40;;;20.70;98.70;;;;;;4992757;28;20824;-64
2023/08/11 08:25:42;;;;;;;5.68;2.40;;;20.70;98.90;;;;;;4992353;28;20041;-63
2023/08/11 08:28:11;;;;;;;6.88;2.08;;;20.70;99.00;;;;;;4998095;28;20036;-63
2023/08/11 08:30:37;;;;;;;3.95;1.90;;;20.70;98.90;;;;;;4994692;28;20042;-63
2023/08/11 08:33:03;;;;;;;3.72;1.75;;;20.70;98.70;;;;;;4990417;28;20101;-63
2023/08/11 08:35:28;;;;;;;4.65;1.48;;;20.80;98.90;;;;;;4991499;28;20577;-63
2023/08/11 08:37:54;;;;;;;5.13;1.80;;;20.80;98.90;;;;;;4991641;28;20030;-63
2023/08/11 08:40:20;;;;;;;3.75;1.80;;;20.90;98.30;;;;;;4989381;28;20184;-63
2023/08/11 08:42:46;;;;;;;4.85;1.50;;;21.00;98.80;;;;;;4989247;28;20128;-63
2023/08/11 08:45:12;;;;;;;4.85;1.70;;;21.00;98.60;;;;;;4997599;28;20066;-63
2023/08/11 08:47:41;;;;;;;3.95;1.50;;;21.10;99.00;;;;;;4980184;28;20578;-63
2023/08/11 08:50:08;;;;;;;4.90;1.83;;;21.20;99.20;;;;;;4988442;28;20050;-63
2023/08/11 08:52:34;;;;;;;4.78;1.48;;;21.20;99.20;;;;;;4991526;28;20030;-63
2023/08/11 08:55:01;;;;;;;2.58;1.20;;;21.30;98.90;;;;;;4991879;28;20479;-64
2023/08/11 08:57:27;;;;;;;3.55;1.50;;;21.30;98.40;;;;;;4989503;28;20037;-64
2023/08/11 08:59:53;;;;;;;4.90;1.50;;;21.40;98.60;;;;;;4980108;28;20129;-63
2023/08/11 09:02:20;;;;;;;2.63;1.60;;;21.50;97.30;;;;;;4993616;28;20037;-63
2023/08/11 09:04:47;;;;;;;4.93;1.85;;;21.60;97.70;;;;;;4995251;28;20121;-63
2023/08/11 09:07:13;;;;;;;3.65;1.50;;;21.60;98.20;;;;;;4989101;28;20049;-63
2023/08/11 09:09:39;;;;;;;3.25;1.63;;;21.70;97.80;;;;;;4992104;28;20035;-63
2023/08/11 09:12:05;;;;;;;4.68;1.55;;;21.80;98.00;;;;;;4989560;28;20041;-63
2023/08/11 09:14:31;;;;;;;3.15;1.48;;;21.90;97.50;;;;;;4972269;28;20037;-63
2023/08/11 09:17:00;;;;;;;4.20;1.73;;;21.90;96.70;;;;;;4975327;28;20062;-64
2023/08/11 09:19:26;;;;;;;4.32;1.60;;;22.10;96.10;;;;;;4994355;28;20042;-64
2023/08/11 09:21:53;;;;;;;3.53;1.40;;;22.30;95.20;;;;;;4994113;28;20092;-64
2023/08/11 09:24:18;;;;;;;3.75;1.33;;;22.40;96.10;;;;;;4992408;28;20230;-64
2023/08/11 09:26:49;;;;;;;2.75;1.50;;;22.50;95.50;;;;;;4974676;28;20152;-64
2023/08/11 09:29:19;;;;;;;6.57;2.33;;;22.70;94.80;;;;;;4948285;28;20867;-64
2023/08/11 09:31:52;;;;;;;4.25;1.70;;;22.90;94.60;;;;;;4982088;28;20038;-64
2023/08/11 09:34:19;;;;;;;3.55;1.40;;;23.10;95.40;;;;;;4987578;28;20042;-64
2023/08/11 09:36:47;;;;;;;1.67;1.25;;;23.30;94.60;;;;;;4984965;28;20026;-63
2023/08/11 09:39:13;;;;;;;4.57;1.60;;;23.50;93.70;;;;;;4985959;28;20739;-64
2023/08/11 09:41:49;;;;;;;4.47;1.90;;;23.60;93.90;;;;;;4983885;28;20045;-64
2023/08/11 09:44:16;;;;;;;5.57;2.33;;;23.70;93.70;;;;;;4989176;28;20046;-64
2023/08/11 09:46:42;;;;;;;6.63;2.47;;;23.80;92.30;;;;;;4990652;28;20050;-64
2023/08/11 09:49:08;;;;;;;2.50;1.10;;;23.80;92.70;;;;;;4962910;28;20097;-64
2023/08/11 09:51:36;;;;;;;3.00;1.20;;;23.90;92.50;;;;;;4987856;28;20030;-63
2023/08/11 09:54:06;;;;;;;3.65;1.40;;;24.00;92.10;;;;;;4988710;28;20053;-63
2023/08/11 09:56:36;;;;;;;2.22;1.20;;;24.10;92.20;;;;;;4989827;28;20026;-64
2023/08/11 09:59:04;;;;;;;4.38;1.20;;;24.10;91.80;;;;;;4994908;28;20030;-64
2023/08/11 10:01:33;;;;;;;4.70;1.00;;;24.10;91.60;;;;;;4991208;28;20444;-64
2023/08/11 10:04:02;;;;;;;2.65;1.20;;;24.20;91.10;;;;;;4991909;28;20115;-63
2023/08/11 10:06:31;;;;;;;2.45;1.00;;;24.30;91.60;;;;;;4988560;28;20037;-63
2023/08/11 10:09:02;;;;;;;2.40;1.00;;;24.30;91.00;;;;;;4988561;28;20112;-64
2023/08/11 10:11:31;;;;;;;3.67;1.38;;;24.40;91.00;;;;;;4985413;28;20052;-63
2023/08/11 10:14:00;;;;;;;4.18;1.20;;;24.50;89.90;;;;;;4991275;28;20117;-64
2023/08/11 10:16:26;;;;;;;2.70;1.08;;;24.40;90.40;;;;;;4992067;28;20036;-63
2023/08/11 10:18:53;;;;;;;3.50;1.50;;;24.40;90.40;;;;;;4993018;28;20365;-64
2023/08/11 10:21:19;;;;;;;1.88;0.77;;;24.40;90.50;;;;;;4987327;28;20057;-64
2023/08/11 10:23:46;;;;;;;2.95;1.10;;;24.40;91.20;;;;;;4988169;28;20116;-64
2023/08/11 10:26:12;;;;;;;1.98;1.00;;;24.50;90.50;;;;;;4974398;28;20181;-65
2023/08/11 10:28:39;;;;;;;7.30;3.42;;;24.60;90.30;;;;;;4985982;28;20030;-62
2023/08/11 10:31:05;;;;;;;8.07;4.38;;;24.50;89.80;;;;;;4996753;28;20120;-62
2023/08/11 10:33:31;;;;;;;3.33;1.25;;;24.50;88.60;;;;;;4992127;28;20109;-63
2023/08/11 10:36:00;;;;;;;3.15;1.90;;;24.50;88.40;;;;;;4993882;28;21346;-62
2023/08/11 10:38:28;;;;;;;29.23;17.92;;;24.50;90.00;;;;;;4989994;28;20085;-63
2023/08/11 10:41:05;;;;;;;27.92;16.27;;;24.40;89.00;;;;;;4989784;28;20047;-63
2023/08/11 10:43:33;;;;;;;17.02;10.15;;;24.30;89.90;;;;;;4986617;28;20066;-62
2023/08/11 10:46:27;;;;;;;12.80;6.13;;;24.20;90.20;;;;;;4986642;28;20097;-62
2023/08/11 10:48:54;;;;;;;6.05;3.80;;;24.10;90.10;;;;;;4994159;28;20722;-62
2023/08/11 10:51:36;;;;;;;3.60;1.38;;;24.10;90.60;;;;;;4992156;28;20042;-62
2023/08/11 10:54:11;;;;;;;12.50;5.85;;;24.00;89.70;;;;;;4992951;28;20076;-62
2023/08/11 10:56:42;;;;;;;12.27;6.37;;;24.00;90.10;;;;;;4989533;28;20106;-62
2023/08/11 10:59:11;;;;;;;8.05;5.15;;;23.90;90.00;;;;;;4986777;28;20277;-62
2023/08/11 11:01:40;;;;;;;6.22;3.65;;;23.90;90.00;;;;;;4969283;28;20038;-62
2023/08/11 11:04:08;;;;;;;2.70;1.50;;;24.00;89.90;;;;;;4985575;28;20777;-62
2023/08/11 11:06:35;;;;;;;7.82;2.88;;;24.00;90.90;;;;;;4988455;28;20034;-62
2023/08/11 11:09:02;;;;;;;3.85;2.95;;;24.00;90.00;;;;;;4994749;28;20066;-62
2023/08/11 11:11:32;;;;;;;2.08;1.08;;;24.10;89.90;;;;;;4990534;28;20030;-62
2023/08/11 11:13:58;;;;;;;1.50;1.20;;;24.10;90.50;;;;;;4986411;28;20470;-62
2023/08/11 11:16:23;;;;;;;2.20;1.80;;;24.10;90.50;;;;;;4975845;28;20082;-62
2023/08/11 11:18:50;;;;;;;1.52;1.05;;;24.00;89.90;;;;;;4987666;28;20089;-62
2023/08/11 11:21:17;;;;;;;2.75;1.45;;;24.00;89.60;;;;;;4989008;28;20052;-62
2023/08/11 11:23:45;;;;;;;2.17;1.27;;;23.90;90.10;;;;;;4989561;28;20039;-62
2023/08/11 11:26:10;;;;;;;5.07;1.20;;;23.80;90.40;;;;;;4994004;28;20045;-62
2023/08/11 11:28:36;;;;;;;2.92;1.05;;;23.80;90.70;;;;;;4989931;28;20042;-63
2023/08/11 11:31:02;;;;;;;2.92;1.10;;;24.00;89.60;;;;;;4991231;28;20116;-62
2023/08/11 11:33:28;;;;;;;2.08;1.30;;;24.00;89.70;;;;;;4987857;28;20042;-62
2023/08/11 11:35:54;;;;;;;1.42;1.00;;;23.80;90.20;;;;;;4987703;28;20030;-62
2023/08/11 11:38:20;;;;;;;3.67;1.17;;;23.70;90.80;;;;;;4976962;28;20629;-62
2023/08/11 11:40:49;;;;;;;2.40;1.35;;;23.60;90.70;;;;;;4989657;28;20077;-62
2023/08/11 11:43:16;;;;;;;2.45;0.70;;;23.60;91.20;;;;;;4990016;28;20034;-62
2023/08/11 11:45:43;;;;;;;1.88;1.23;;;23.80;90.80;;;;;;4972224;28;20560;-62
2023/08/11 11:48:08;;;;;;;1.92;0.80;;;23.80;90.30;;;;;;4990915;28;20033;-62
2023/08/11 11:50:34;;;;;;;2.30;0.90;;;23.80;88.60;;;;;;4987720;28;20039;-62
2023/08/11 11:53:00;;;;;;;1.98;0.85;;;23.60;89.70;;;;;;4988079;28;20391;-63
2023/08/11 11:55:26;;;;;;;0.80;0.60;;;23.50;91.00;;;;;;4985942;28;20038;-62
2023/08/11 11:57:52;;;;;;;1.48;0.60;;;23.60;90.60;;;;;;4986926;28;20037;-63
2023/08/11 12:00:18;;;;;;;1.30;1.00;;;23.60;90.00;;;;;;4993336;28;20038;-62
2023/08/11 12:02:46;;;;;;;1.33;0.70;;;23.60;90.40;;;;;;4976696;28;20054;-62
2023/08/11 12:05:12;;;;;;;2.50;0.73;;;23.60;90.60;;;;;;4984287;28;20034;-62
2023/08/11 12:07:38;;;;;;;1.55;0.60;;;23.60;88.30;;;;;;4988554;28;20046;-63
2023/08/11 12:10:05;;;;;;;0.60;0.52;;;23.50;87.80;;;;;;4988607;28;20040;-63
2023/08/11 12:12:32;;;;;;;1.30;0.50;;;23.50;90.20;;;;;;4985417;28;20037;-63
2023/08/11 12:15:03;;;;;;;0.60;0.50;;;23.50;90.40;;;;;;4985375;28;20727;-63
2023/08/11 12:17:31;;;;;;;0.52;0.52;;;23.60;89.60;;;;;;4991664;28;20033;-63
2023/08/11 12:19:57;;;;;;;0.80;0.77;;;23.70;88.90;;;;;;4993162;28;20038;-62
2023/08/11 12:22:23;;;;;;;0.47;0.40;;;23.70;89.60;;;;;;4989421;28;20048;-63
2023/08/11 12:24:48;;;;;;;1.13;0.50;;;23.60;89.60;;;;;;4990188;28;20055;-63
2023/08/11 12:27:14;;;;;;;2.30;0.70;;;23.60;90.20;;;;;;4986915;28;20030;-62
2023/08/11 12:29:40;;;;;;;1.55;0.57;;;23.70;89.20;;;;;;4986709;28;20088;-63
2023/08/11 12:32:06;;;;;;;1.52;0.90;;;23.70;87.50;;;;;;4984999;28;20400;-62
2023/08/11 12:34:31;;;;;;;1.25;0.80;;;23.70;89.60;;;;;;4987810;28;20045;-62
2023/08/11 12:36:57;;;;;;;1.95;0.85;;;23.60;89.80;;;;;;4993863;28;20160;-63
2023/08/11 12:39:23;;;;;;;3.00;0.80;;;23.60;90.60;;;;;;4972294;28;20045;-61
2023/08/11 12:41:49;;;;;;;2.40;0.70;;;23.60;89.90;;;;;;4989950;28;20045;-62
2023/08/11 12:44:15;;;;;;;1.58;0.93;;;23.80;89.40;;;;;;4987819;28;20537;-62